createdAt,value
2019-01-20T00:01:19.991Z,8.95
2019-01-20T00:03:47.091Z,6.20
2019-01-20T00:06:14.078Z,10.75
2019-01-20T00:08:41.113Z,7.80
2019-01-20T00:11:08.013Z,7.28
2019-01-20T00:13:35.149Z,6.65
2019-01-20T00:16:02.396Z,8.80
2019-01-20T00:18:29.652Z,4.97
2019-01-20T00:20:56.619Z,7.15
2019-01-20T00:23:23.570Z,5.97
2019-01-20T00:25:50.505Z,7.25
2019-01-20T00:28:17.488Z,7.08
2019-01-20T00:30:44.394Z,7.17
2019-01-20T00:33:11.469Z,8.43
2019-01-20T00:35:38.350Z,10.25
2019-01-20T00:38:05.449Z,5.80
2019-01-20T00:40:32.410Z,7.50
2019-01-20T00:42:59.361Z,5.75
2019-01-20T00:45:26.275Z,5.97
2019-01-20T00:47:53.273Z,6.70
2019-01-20T00:50:20.236Z,8.50
2019-01-20T00:52:47.210Z,5.85
2019-01-20T00:55:14.905Z,7.65
2019-01-20T00:57:42.857Z,8.00
2019-01-20T01:00:15.210Z,5.40
2019-01-20T01:02:42.679Z,11.60
2019-01-20T01:05:09.754Z,8.83
2019-01-20T01:07:36.658Z,7.67
2019-01-20T01:10:04.958Z,5.17
2019-01-20T01:12:32.523Z,5.05
2019-01-20T01:14:59.425Z,6.80
2019-01-20T01:17:26.346Z,5.67
2019-01-20T01:19:53.822Z,5.78
2019-01-20T01:22:20.772Z,5.78
2019-01-20T01:24:47.645Z,7.65
2019-01-20T01:27:14.625Z,6.53
2019-01-20T01:29:41.533Z,6.15
2019-01-20T01:32:08.550Z,5.53
2019-01-20T01:34:35.432Z,6.45
2019-01-20T01:37:02.463Z,7.12
2019-01-20T01:39:29.364Z,5.12
2019-01-20T01:41:56.289Z,7.50
2019-01-20T01:44:23.289Z,7.33
2019-01-20T01:46:50.239Z,5.70
2019-01-20T01:49:17.184Z,8.63
2019-01-20T01:51:44.224Z,6.60
2019-01-20T01:54:11.220Z,9.73
2019-01-20T01:56:38.249Z,6.62
2019-01-20T01:59:05.185Z,5.42
2019-01-20T02:01:32.065Z,7.67
2019-01-20T02:03:59.049Z,8.98
2019-01-20T02:06:25.926Z,8.00
2019-01-20T02:08:52.866Z,5.47
2019-01-20T02:11:19.819Z,9.98
2019-01-20T02:13:46.885Z,6.78
2019-01-20T02:16:13.831Z,6.35
2019-01-20T02:18:40.805Z,5.60
2019-01-20T02:21:07.798Z,6.65
2019-01-20T02:23:34.769Z,8.38
2019-01-20T02:26:01.749Z,6.67
2019-01-20T02:28:28.806Z,9.98
2019-01-20T02:30:55.789Z,6.65
2019-01-20T02:33:22.734Z,8.40
2019-01-20T02:35:49.618Z,6.35
2019-01-20T02:38:16.630Z,7.55
2019-01-20T02:40:43.631Z,10.10
2019-01-20T02:43:10.677Z,7.42
2019-01-20T02:45:37.644Z,10.15
2019-01-20T02:48:04.710Z,8.30
2019-01-20T02:50:31.655Z,6.70
2019-01-20T02:52:58.665Z,8.98
2019-01-20T02:55:25.549Z,6.80
2019-01-20T02:57:52.541Z,10.55
2019-01-20T03:00:21.511Z,7.87
2019-01-20T03:02:48.820Z,7.20
2019-01-20T03:05:16.825Z,5.92
2019-01-20T03:07:43.790Z,6.28
2019-01-20T03:10:10.924Z,7.37
2019-01-20T03:12:37.902Z,9.50
2019-01-20T03:15:05.648Z,9.50
2019-01-20T03:17:32.602Z,10.38
2019-01-20T03:19:59.636Z,9.93
2019-01-20T03:22:26.572Z,9.53
2019-01-20T03:24:53.501Z,10.58
2019-01-20T03:27:20.542Z,11.22
2019-01-20T03:29:47.595Z,8.85
2019-01-20T03:32:14.466Z,6.97
2019-01-20T03:34:41.534Z,8.43
2019-01-20T03:37:08.461Z,8.85
2019-01-20T03:39:35.561Z,10.38
2019-01-20T03:42:02.969Z,9.88
2019-01-20T03:44:29.934Z,8.75
2019-01-20T03:46:56.823Z,9.43
2019-01-20T03:49:23.813Z,11.15
2019-01-20T03:51:50.798Z,8.78
2019-01-20T03:54:17.725Z,12.80
2019-01-20T03:56:44.673Z,7.97
2019-01-20T03:59:11.648Z,8.93
2019-01-20T04:01:38.609Z,10.65
2019-01-20T04:04:05.484Z,8.20
2019-01-20T04:06:32.430Z,12.07
2019-01-20T04:08:59.403Z,11.93
2019-01-20T04:11:26.741Z,11.33
2019-01-20T04:13:53.683Z,14.00
2019-01-20T04:16:20.644Z,9.98
2019-01-20T04:18:47.782Z,7.62
2019-01-20T04:21:14.711Z,14.23
2019-01-20T04:23:41.747Z,11.25
2019-01-20T04:26:08.640Z,12.18
2019-01-20T04:28:35.694Z,9.23
2019-01-20T04:31:02.593Z,8.40
2019-01-20T04:33:29.643Z,11.93
2019-01-20T04:35:56.653Z,10.38
2019-01-20T04:38:23.795Z,11.38
2019-01-20T04:40:50.757Z,10.63
2019-01-20T04:43:17.637Z,10.75
2019-01-20T04:45:44.582Z,9.68
2019-01-20T04:48:11.513Z,10.58
2019-01-20T04:50:38.385Z,13.65
2019-01-20T04:53:05.321Z,9.75
2019-01-20T04:55:32.519Z,10.13
2019-01-20T04:57:59.671Z,9.03
2019-01-20T05:00:27.194Z,8.83
2019-01-20T05:02:54.107Z,11.48
2019-01-20T05:05:21.488Z,8.18
2019-01-20T05:07:48.470Z,8.43
2019-01-20T05:10:16.002Z,11.00
2019-01-20T05:12:42.889Z,11.95
2019-01-20T05:15:12.705Z,9.45
2019-01-20T05:17:39.712Z,11.03
2019-01-20T05:20:07.450Z,12.88
2019-01-20T05:22:34.454Z,11.95
2019-01-20T05:25:01.406Z,10.10
2019-01-20T05:27:28.413Z,9.60
2019-01-20T05:29:55.377Z,9.35
2019-01-20T05:32:22.377Z,7.70
2019-01-20T05:34:49.443Z,12.73
2019-01-20T05:37:16.337Z,9.63
2019-01-20T05:39:43.271Z,10.63
2019-01-20T05:42:10.182Z,9.78
2019-01-20T05:44:37.167Z,7.90
2019-01-20T05:47:04.174Z,9.30
2019-01-20T05:49:31.260Z,10.25
2019-01-20T05:51:58.341Z,10.15
2019-01-20T05:54:25.315Z,9.43
2019-01-20T05:56:52.217Z,9.90
2019-01-20T05:59:19.142Z,12.05
2019-01-20T06:01:46.042Z,11.33
2019-01-20T06:04:13.038Z,8.03
2019-01-20T06:06:40.088Z,13.03
2019-01-20T06:09:07.120Z,9.85
2019-01-20T06:11:34.033Z,11.45
2019-01-20T06:14:01.081Z,12.23
2019-01-20T06:16:28.034Z,10.70
2019-01-20T06:18:55.007Z,10.58
2019-01-20T06:21:22.104Z,13.03
2019-01-20T06:23:49.111Z,12.90
2019-01-20T06:26:16.124Z,9.40
2019-01-20T06:28:43.121Z,10.30
2019-01-20T06:31:11.099Z,14.13
2019-01-20T06:33:38.113Z,21.30
2019-01-20T06:36:05.091Z,11.97
2019-01-20T06:38:32.004Z,11.60
2019-01-20T06:40:58.928Z,11.28
2019-01-20T06:43:25.905Z,12.73
2019-01-20T06:45:52.830Z,13.22
2019-01-20T06:48:19.718Z,13.13
2019-01-20T06:50:46.835Z,11.43
2019-01-20T06:53:13.994Z,12.70
2019-01-20T06:55:40.992Z,12.93
2019-01-20T06:58:08.050Z,10.55
2019-01-20T07:00:36.535Z,12.20
2019-01-20T07:03:03.829Z,15.50
2019-01-20T07:05:30.799Z,11.95
2019-01-20T07:07:57.797Z,12.35
2019-01-20T07:10:25.096Z,11.68
2019-01-20T07:12:52.249Z,13.40
2019-01-20T07:15:21.221Z,13.20
2019-01-20T07:17:48.377Z,11.53
2019-01-20T07:20:15.589Z,11.68
2019-01-20T07:22:42.529Z,12.05
2019-01-20T07:25:09.798Z,13.35
2019-01-20T07:27:36.812Z,12.43
2019-01-20T07:30:07.527Z,16.40
2019-01-20T07:32:34.573Z,12.33
2019-01-20T07:35:01.453Z,14.13
2019-01-20T07:37:28.441Z,14.47
2019-01-20T07:39:55.473Z,11.97
2019-01-20T07:42:22.433Z,14.07
2019-01-20T07:44:49.466Z,14.73
2019-01-20T07:47:16.424Z,11.10
2019-01-20T07:49:43.385Z,14.55
2019-01-20T07:52:10.349Z,15.48
2019-01-20T07:54:37.365Z,17.02
2019-01-20T07:57:04.366Z,12.75
2019-01-20T07:59:31.276Z,14.20
2019-01-20T08:01:58.350Z,14.15
2019-01-20T08:04:25.500Z,14.58
2019-01-20T08:06:52.385Z,11.43
2019-01-20T08:09:19.325Z,16.10
2019-01-20T08:11:46.416Z,13.30
2019-01-20T08:14:13.311Z,14.30
2019-01-20T08:16:40.278Z,17.02
2019-01-20T08:19:07.157Z,18.55
2019-01-20T08:21:34.287Z,14.63
2019-01-20T08:24:01.441Z,14.45
2019-01-20T08:26:28.472Z,13.83
2019-01-20T08:28:55.554Z,14.73
2019-01-20T08:31:22.640Z,13.40
2019-01-20T08:33:49.741Z,13.45
2019-01-20T08:36:16.690Z,18.60
2019-01-20T08:38:43.734Z,14.90
2019-01-20T08:41:10.728Z,21.77
2019-01-20T08:43:38.201Z,15.83
2019-01-20T08:46:35.016Z,15.03
2019-01-20T08:49:02.747Z,20.50
2019-01-20T08:51:30.565Z,16.40
2019-01-20T08:53:57.467Z,15.45
2019-01-20T08:56:24.592Z,12.50
2019-01-20T08:58:51.665Z,13.32
2019-01-20T09:01:18.725Z,23.15
2019-01-20T09:03:45.758Z,18.50
2019-01-20T09:06:12.808Z,14.98
2019-01-20T09:08:39.800Z,33.73
2019-01-20T09:11:06.804Z,15.65
2019-01-20T09:13:39.674Z,19.42
2019-01-20T09:16:03.090Z,17.57
2019-01-20T09:18:30.103Z,19.37
2019-01-20T09:20:57.182Z,18.50
2019-01-20T09:23:24.272Z,17.07
2019-01-20T09:25:51.270Z,19.62
2019-01-20T09:28:18.253Z,15.93
2019-01-20T09:30:45.242Z,20.95
2019-01-20T09:33:12.223Z,17.17
2019-01-20T09:35:39.212Z,18.02
2019-01-20T09:38:06.313Z,15.45
2019-01-20T09:40:33.353Z,17.20
2019-01-20T09:43:00.309Z,18.77
2019-01-20T09:45:28.359Z,19.90
2019-01-20T09:47:55.342Z,17.00
2019-01-20T09:50:22.309Z,18.42
2019-01-20T09:52:49.345Z,16.07
2019-01-20T09:55:16.706Z,17.82
2019-01-20T09:57:44.146Z,18.40
2019-01-20T10:00:14.275Z,19.15
2019-01-20T10:02:41.275Z,24.20
2019-01-20T10:05:08.344Z,20.80
2019-01-20T10:07:35.411Z,20.72
2019-01-20T10:10:03.051Z,23.02
2019-01-20T10:12:30.001Z,20.02
2019-01-20T10:14:56.922Z,18.65
2019-01-20T10:17:23.828Z,23.85
2019-01-20T10:19:50.777Z,20.65
2019-01-20T10:22:17.677Z,17.92
2019-01-20T10:24:44.704Z,19.52
2019-01-20T10:27:11.764Z,21.07
2019-01-20T10:29:38.971Z,20.20
2019-01-20T10:32:06.073Z,19.80
2019-01-20T10:34:33.801Z,20.97
2019-01-20T10:37:01.306Z,22.50
2019-01-20T10:39:28.831Z,18.82
2019-01-20T10:41:55.926Z,25.00
2019-01-20T10:44:22.847Z,22.17
2019-01-20T10:46:49.888Z,22.22
2019-01-20T10:49:17.071Z,25.90
2019-01-20T10:51:44.190Z,27.37
2019-01-20T10:54:13.157Z,23.10
2019-01-20T10:56:40.201Z,20.52
2019-01-20T10:59:07.123Z,19.80
2019-01-20T11:01:35.080Z,18.57
2019-01-20T11:04:04.650Z,19.52
2019-01-20T11:06:31.601Z,23.20
2019-01-20T11:08:59.544Z,19.55
2019-01-20T11:11:26.541Z,23.75
2019-01-20T11:13:54.370Z,20.88
2019-01-20T11:16:23.291Z,19.70
2019-01-20T11:18:50.388Z,21.73
2019-01-20T11:21:17.398Z,25.65
2019-01-20T11:23:44.785Z,22.95
2019-01-20T11:26:11.681Z,25.05
2019-01-20T11:28:38.790Z,19.27
2019-01-20T11:31:05.690Z,19.98
2019-01-20T11:33:33.052Z,22.50
2019-01-20T11:35:59.949Z,18.50
2019-01-20T11:38:27.137Z,19.73
2019-01-20T11:40:54.154Z,19.20
2019-01-20T11:43:21.126Z,22.15
2019-01-20T11:45:48.518Z,24.18
2019-01-20T11:48:15.560Z,18.75
2019-01-20T11:50:42.850Z,23.45
2019-01-20T11:53:09.874Z,21.27
2019-01-20T11:55:36.901Z,21.30
2019-01-20T11:58:04.019Z,21.30
2019-01-20T12:00:33.167Z,20.48
2019-01-20T12:03:00.363Z,21.60
2019-01-20T12:05:28.465Z,22.10
2019-01-20T12:07:55.453Z,21.70
2019-01-20T12:10:22.750Z,18.17
2019-01-20T12:12:54.657Z,22.70
2019-01-20T12:15:21.752Z,21.57
2019-01-20T12:17:48.835Z,23.90
2019-01-20T12:20:16.078Z,20.75
2019-01-20T12:22:43.429Z,20.15
2019-01-20T12:25:12.647Z,24.77
2019-01-20T12:27:39.681Z,20.40
2019-01-20T12:30:10.424Z,21.62
2019-01-20T12:32:37.460Z,22.98
2019-01-20T12:35:04.644Z,23.50
2019-01-20T12:37:31.640Z,22.73
2019-01-20T12:39:58.713Z,23.60
2019-01-20T12:42:25.772Z,23.67
2019-01-20T12:44:52.685Z,18.77
2019-01-20T12:47:19.719Z,21.85
2019-01-20T12:49:46.745Z,19.57
2019-01-20T12:52:13.831Z,17.70
2019-01-20T12:54:40.836Z,22.30
2019-01-20T12:57:07.952Z,22.22
2019-01-20T12:59:35.002Z,22.00
2019-01-20T13:02:02.191Z,22.02
2019-01-20T13:04:29.470Z,21.62
2019-01-20T13:06:56.694Z,20.40
2019-01-20T13:09:23.851Z,21.20
2019-01-20T13:11:50.993Z,23.27
2019-01-20T13:14:18.138Z,21.93
2019-01-20T13:16:45.195Z,21.33
2019-01-20T13:19:12.269Z,22.25
2019-01-20T13:21:39.389Z,18.98
2019-01-20T13:24:06.622Z,20.00
2019-01-20T13:26:33.850Z,24.43
2019-01-20T13:29:01.225Z,22.87
2019-01-20T13:31:28.339Z,23.60
2019-01-20T13:33:55.751Z,27.05
2019-01-20T13:36:22.949Z,19.55
2019-01-20T13:38:50.153Z,25.48
2019-01-20T13:41:35.115Z,28.45
2019-01-20T13:44:02.515Z,23.65
2019-01-20T13:46:29.709Z,22.30
2019-01-20T13:48:56.810Z,25.75
2019-01-20T13:51:23.961Z,17.48
2019-01-20T13:53:51.116Z,22.60
2019-01-20T13:56:18.413Z,20.60
2019-01-20T13:58:45.629Z,20.68
2019-01-20T14:01:12.670Z,23.00
2019-01-20T14:03:39.815Z,20.05
2019-01-20T14:06:07.432Z,22.75
2019-01-20T14:08:34.891Z,21.80
2019-01-20T14:11:02.054Z,27.25
2019-01-20T14:13:29.013Z,20.72
2019-01-20T14:15:56.101Z,17.65
2019-01-20T14:18:23.309Z,17.02
2019-01-20T14:20:50.425Z,21.85
2019-01-20T14:23:17.498Z,16.65
2019-01-20T14:25:44.784Z,17.70
2019-01-20T14:28:11.997Z,20.20
2019-01-20T14:30:39.549Z,23.70
2019-01-20T14:33:09.013Z,18.27
2019-01-20T14:35:38.516Z,17.90
2019-01-20T14:38:05.836Z,18.80
2019-01-20T14:40:33.226Z,19.02
2019-01-20T14:43:00.345Z,17.65
2019-01-20T14:45:27.846Z,18.20
2019-01-20T14:47:55.403Z,20.05
2019-01-20T14:50:24.125Z,26.85
2019-01-20T14:52:52.379Z,22.45
2019-01-20T14:55:20.112Z,21.93
2019-01-20T14:57:47.525Z,17.73
2019-01-20T15:00:25.020Z,20.75
2019-01-20T15:02:52.579Z,21.42
2019-01-20T15:05:19.695Z,21.93
2019-01-20T15:07:46.836Z,17.00
2019-01-20T15:10:13.918Z,21.52
2019-01-20T15:12:41.407Z,21.68
2019-01-20T15:15:10.830Z,24.67
2019-01-20T15:17:37.929Z,19.20
2019-01-20T15:20:08.823Z,19.87
2019-01-20T15:22:35.917Z,21.05
2019-01-20T15:25:04.323Z,17.02
2019-01-20T15:27:32.247Z,26.37
2019-01-20T15:29:59.600Z,17.35
2019-01-20T15:32:26.965Z,20.55
2019-01-20T15:34:54.466Z,20.75
2019-01-20T15:37:21.677Z,18.92
2019-01-20T15:39:49.833Z,22.70
2019-01-20T15:42:16.843Z,21.48
2019-01-20T15:44:43.940Z,19.35
2019-01-20T15:47:10.873Z,22.30
2019-01-20T15:49:37.840Z,19.62
2019-01-20T15:52:04.938Z,22.20
2019-01-20T15:54:31.933Z,19.67
2019-01-20T15:56:58.993Z,21.75
2019-01-20T15:59:25.977Z,18.95
2019-01-20T16:01:53.192Z,18.15
2019-01-20T16:04:24.108Z,19.45
2019-01-20T16:06:49.136Z,22.37
2019-01-20T16:09:16.223Z,22.05
2019-01-20T16:11:43.218Z,26.62
2019-01-20T16:14:10.297Z,21.60
2019-01-20T16:16:38.354Z,21.42
2019-01-20T16:19:05.658Z,21.75
2019-01-20T16:21:32.674Z,22.05
2019-01-20T16:23:59.741Z,28.27
2019-01-20T16:26:26.765Z,24.23
2019-01-20T16:28:53.933Z,25.43
2019-01-20T16:31:20.981Z,23.77
2019-01-20T16:33:48.022Z,20.80
2019-01-20T16:36:15.203Z,17.80
2019-01-20T16:38:42.261Z,17.67
2019-01-20T16:41:09.749Z,25.17
2019-01-20T16:43:36.729Z,22.27
2019-01-20T16:46:03.812Z,19.95
2019-01-20T16:48:30.903Z,18.50
2019-01-20T16:50:57.945Z,19.20
2019-01-20T16:53:25.041Z,21.85
2019-01-20T16:55:52.052Z,17.82
2019-01-20T16:58:19.272Z,18.60
2019-01-20T17:00:46.228Z,25.08
2019-01-20T17:03:14.097Z,23.12
2019-01-20T17:05:41.097Z,24.92
2019-01-20T17:08:08.383Z,27.75
2019-01-20T17:10:40.058Z,22.05
2019-01-20T17:13:08.023Z,23.42
2019-01-20T17:15:39.685Z,21.02
2019-01-20T17:18:07.057Z,22.82
2019-01-20T17:20:34.116Z,19.25
2019-01-20T17:23:01.237Z,20.55
2019-01-20T17:25:28.365Z,18.27
2019-01-20T17:27:55.313Z,19.27
2019-01-20T17:30:24.537Z,19.05
2019-01-20T17:32:52.237Z,21.93
2019-01-20T17:35:19.188Z,17.50
2019-01-20T17:37:46.135Z,21.62
2019-01-20T17:40:18.738Z,21.95
2019-01-20T17:42:45.879Z,21.87
2019-01-20T17:45:14.986Z,24.55
2019-01-20T17:47:42.025Z,20.00
2019-01-20T17:50:18.444Z,22.98
2019-01-20T17:52:45.803Z,20.95
2019-01-20T17:55:12.830Z,19.75
2019-01-20T17:57:40.027Z,17.70
2019-01-20T18:00:10.671Z,17.67
2019-01-20T18:02:37.843Z,25.75
2019-01-20T18:05:07.137Z,22.07
2019-01-20T18:07:34.232Z,22.65
2019-01-20T18:10:01.434Z,18.85
2019-01-20T18:12:28.353Z,16.73
2019-01-20T18:14:55.294Z,17.42
2019-01-20T18:17:22.236Z,21.45
2019-01-20T18:19:49.295Z,17.52
2019-01-20T18:22:16.251Z,16.12
2019-01-20T18:24:43.309Z,14.15
2019-01-20T18:27:10.402Z,17.95
2019-01-20T18:29:37.480Z,16.85
2019-01-20T18:32:06.053Z,17.05
2019-01-20T18:34:33.246Z,15.08
2019-01-20T18:37:00.229Z,14.95
2019-01-20T18:39:27.157Z,15.25
2019-01-20T18:41:54.262Z,15.35
2019-01-20T18:44:21.417Z,15.65
2019-01-20T18:46:48.450Z,18.25
2019-01-20T18:49:15.556Z,19.27
2019-01-20T18:51:42.641Z,16.25
2019-01-20T18:54:09.576Z,15.58
2019-01-20T18:56:36.596Z,15.65
2019-01-20T18:59:03.708Z,19.92
2019-01-20T19:01:30.610Z,21.50
2019-01-20T19:03:57.570Z,14.90
2019-01-20T19:06:24.545Z,15.03
2019-01-20T19:08:51.437Z,11.43
2019-01-20T19:11:18.484Z,20.30
2019-01-20T19:13:45.662Z,16.48
2019-01-20T19:16:12.719Z,19.48
2019-01-20T19:18:39.666Z,17.12
2019-01-20T19:21:06.595Z,17.82
2019-01-20T19:23:33.485Z,14.03
2019-01-20T19:26:00.787Z,17.92
2019-01-20T19:28:27.749Z,15.38
2019-01-20T19:30:54.938Z,20.92
2019-01-20T19:33:21.965Z,18.00
2019-01-20T19:35:49.197Z,17.23
2019-01-20T19:38:16.268Z,17.12
2019-01-20T19:40:43.294Z,17.52
2019-01-20T19:43:10.223Z,17.67
2019-01-20T19:45:37.302Z,21.30
2019-01-20T19:48:04.413Z,19.77
2019-01-20T19:50:31.560Z,28.47
2019-01-20T19:52:58.774Z,28.10
2019-01-20T19:55:28.190Z,20.90
2019-01-20T19:57:55.403Z,20.25
2019-01-20T20:00:23.444Z,20.12
2019-01-20T20:02:50.502Z,34.53
2019-01-20T20:05:18.211Z,27.07
2019-01-20T20:07:45.975Z,32.03
2019-01-20T20:10:15.641Z,34.92
2019-01-20T20:12:43.594Z,29.50
2019-01-20T20:15:13.741Z,29.48
2019-01-20T20:17:41.621Z,24.57
2019-01-20T20:20:10.283Z,29.65
2019-01-20T20:22:37.435Z,20.17
2019-01-20T20:25:05.666Z,20.15
2019-01-20T20:27:32.795Z,22.40
2019-01-20T20:30:00.020Z,16.93
2019-01-20T20:32:27.650Z,18.60
2019-01-20T20:34:54.906Z,20.20
2019-01-20T20:37:22.524Z,19.12
2019-01-20T20:39:51.774Z,22.45
2019-01-20T20:42:18.913Z,20.60
2019-01-20T20:44:46.015Z,25.55
2019-01-20T20:47:16.688Z,20.40
2019-01-20T20:49:43.805Z,16.23
2019-01-20T20:52:10.942Z,15.35
2019-01-20T20:54:38.001Z,19.87
2019-01-20T20:57:04.979Z,19.32
2019-01-20T20:59:32.138Z,15.85
2019-01-20T21:01:59.220Z,20.20
2019-01-20T21:04:26.284Z,19.32
2019-01-20T21:06:53.325Z,16.97
2019-01-20T21:09:20.224Z,18.05
2019-01-20T21:11:47.172Z,15.98
2019-01-20T21:14:14.177Z,23.40
2019-01-20T21:16:41.242Z,23.55
2019-01-20T21:19:08.247Z,18.10
2019-01-20T21:21:35.260Z,17.70
2019-01-20T21:24:02.286Z,19.40
2019-01-20T21:26:29.829Z,18.23
2019-01-20T21:28:56.951Z,19.27
2019-01-20T21:31:23.862Z,19.77
2019-01-20T21:33:50.821Z,15.08
2019-01-20T21:36:17.747Z,16.15
2019-01-20T21:38:44.869Z,17.85
2019-01-20T21:41:12.692Z,15.53
2019-01-20T21:43:39.964Z,17.45
2019-01-20T21:46:06.951Z,19.23
2019-01-20T21:48:33.990Z,16.52
2019-01-20T21:51:00.884Z,26.30
2019-01-20T21:53:27.845Z,20.27
2019-01-20T21:55:54.898Z,17.52
2019-01-20T21:58:21.841Z,18.00
2019-01-20T22:00:48.930Z,19.95
2019-01-20T22:03:16.009Z,17.75
2019-01-20T22:05:42.931Z,18.10
2019-01-20T22:08:09.959Z,21.02
2019-01-20T22:10:37.127Z,17.90
2019-01-20T22:13:04.108Z,19.10
2019-01-20T22:15:31.235Z,24.43
2019-01-20T22:17:58.222Z,23.65
2019-01-20T22:20:25.368Z,23.35
2019-01-20T22:22:52.739Z,19.12
2019-01-20T22:25:19.654Z,19.75
2019-01-20T22:27:46.702Z,20.92
2019-01-20T22:30:15.897Z,16.70
2019-01-20T22:32:42.847Z,23.18
2019-01-20T22:35:10.171Z,21.90
2019-01-20T22:37:37.212Z,18.67
2019-01-20T22:40:04.685Z,26.75
2019-01-20T22:42:31.737Z,22.73
2019-01-20T22:44:58.606Z,21.05
2019-01-20T22:47:26.607Z,24.10
2019-01-20T22:49:53.634Z,17.57
2019-01-20T22:52:20.633Z,17.25
2019-01-20T22:54:47.610Z,20.60
2019-01-20T22:57:14.947Z,20.75
2019-01-20T22:59:41.829Z,25.12
2019-01-20T23:02:08.809Z,25.12
2019-01-20T23:04:35.853Z,22.52
2019-01-20T23:07:02.994Z,19.95
2019-01-20T23:09:30.033Z,19.95
2019-01-20T23:11:56.995Z,19.92
2019-01-20T23:14:25.029Z,16.15
2019-01-20T23:16:52.066Z,21.87
2019-01-20T23:19:19.835Z,20.77
2019-01-20T23:21:47.018Z,21.07
2019-01-20T23:24:14.140Z,24.15
2019-01-20T23:26:41.226Z,16.73
2019-01-20T23:29:08.233Z,22.48
2019-01-20T23:31:35.282Z,15.95
2019-01-20T23:34:02.300Z,17.20
2019-01-20T23:36:29.269Z,17.20
2019-01-20T23:38:56.232Z,20.57
2019-01-20T23:41:23.151Z,17.87
2019-01-20T23:43:50.210Z,19.37
2019-01-20T23:46:17.305Z,17.73
2019-01-20T23:48:44.243Z,21.05
2019-01-20T23:51:11.166Z,23.32
2019-01-20T23:53:38.213Z,21.85
2019-01-20T23:56:05.144Z,21.35
2019-01-20T23:58:32.169Z,18.30
